Terminal Aerodrome Forecast
Issued by NWS Shreveport, LA

Home | Current Version | Previous Version | Text Only | Print | Product List | Glossary On
Versions: 1 2 3 4 5 6 7 8 9 10 11 12 13 14 15 16 17 18
401
FTUS44 KSHV 201807 RRA
TAFTXK
TAF
KTXK 201807Z 2018/2118 22012G18KT P6SM SCT250
     FM210000 18010KT P6SM SCT100 BKN250
     FM211000 19007KT P6SM BKN015
     FM211200 20005KT 6SM BR BKN009
     FM211400 20005KT P6SM OVC015=

USA.gov is the U.S. government's official web portal to all federal, state and local government web resources and services.